createdAt,value
2022-12-03T00:02:22.249Z,96883.16
2022-12-03T00:04:49.018Z,96904.78
2022-12-03T00:07:15.593Z,96892.09
2022-12-03T00:09:42.716Z,96908.88
2022-12-03T00:12:09.286Z,96912.53
2022-12-03T00:14:38.856Z,96913.50
2022-12-03T00:17:09.465Z,96877.25
2022-12-03T00:19:36.023Z,96893.94
2022-12-03T00:22:02.549Z,96910.91
2022-12-03T00:24:29.061Z,96909.22
2022-12-03T00:26:55.757Z,96905.84
2022-12-03T00:29:22.267Z,96903.97
2022-12-03T00:31:48.776Z,96902.72
2022-12-03T00:34:15.300Z,96890.59
2022-12-03T00:36:41.893Z,96902.63
2022-12-03T00:39:08.439Z,96898.44
2022-12-03T00:41:35.090Z,96899.75
2022-12-03T00:44:01.653Z,96876.38
2022-12-03T00:46:28.275Z,96902.50
2022-12-03T00:48:54.837Z,96906.63
2022-12-03T00:51:21.397Z,96908.44
2022-12-03T00:53:47.882Z,96897.16
2022-12-03T00:56:14.439Z,96911.25
2022-12-03T00:58:40.916Z,96915.72
2022-12-03T01:01:07.449Z,96910.78
2022-12-03T01:03:34.174Z,96889.13
2022-12-03T01:06:00.700Z,96915.59
2022-12-03T01:08:27.272Z,96904.38
2022-12-03T01:10:53.775Z,96909.78
2022-12-03T01:13:20.330Z,96910.75
2022-12-03T01:15:46.916Z,96885.28
2022-12-03T01:18:13.508Z,96883.44
2022-12-03T01:20:40.048Z,96906.56
2022-12-03T01:23:06.583Z,96914.09
2022-12-03T01:25:33.192Z,96914.19
2022-12-03T01:27:59.713Z,96888.56
2022-12-03T01:30:26.320Z,96900.53
2022-12-03T01:32:52.831Z,96884.56
2022-12-03T01:35:19.395Z,96911.41
2022-12-03T01:37:45.930Z,96904.72
2022-12-03T01:40:19.413Z,96911.41
2022-12-03T01:42:46.008Z,96911.50
2022-12-03T01:45:23.731Z,96903.59
2022-12-03T01:47:50.875Z,96886.06
2022-12-03T01:50:26.676Z,96894.13
2022-12-03T01:52:55.831Z,96898.34
2022-12-03T01:55:25.140Z,96900.63
2022-12-03T01:57:56.266Z,96899.81
2022-12-03T02:00:25.046Z,96895.09
2022-12-03T02:02:55.075Z,96816.47
2022-12-03T02:05:26.117Z,96887.59
2022-12-03T02:07:53.159Z,96906.28
2022-12-03T02:10:31.614Z,96894.06
2022-12-03T02:13:01.828Z,96903.88
2022-12-03T02:15:28.437Z,96906.00
2022-12-03T02:17:55.542Z,96880.66
2022-12-03T02:20:22.417Z,96904.44
2022-12-03T02:23:01.047Z,96913.22
2022-12-03T02:25:31.981Z,96907.00
2022-12-03T02:27:59.775Z,96915.03
2022-12-03T02:30:28.984Z,96904.44
2022-12-03T02:32:56.427Z,96894.31
2022-12-03T02:35:32.881Z,96910.31
2022-12-03T02:38:13.417Z,96909.53
2022-12-03T02:40:41.028Z,96907.31
2022-12-03T02:43:07.963Z,96903.25
2022-12-03T02:45:38.224Z,96892.94
2022-12-03T02:48:17.673Z,96907.41
2022-12-03T02:50:51.560Z,96893.28
2022-12-03T02:53:22.812Z,96909.31
2022-12-03T02:55:50.769Z,96912.75
2022-12-03T02:58:18.355Z,96910.63
2022-12-03T03:00:45.876Z,96918.53
2022-12-03T03:03:13.112Z,96888.50
2022-12-03T03:05:40.547Z,96912.34
2022-12-03T03:08:09.208Z,96912.16
2022-12-03T03:10:37.609Z,96884.47
2022-12-03T03:13:09.902Z,96911.91
2022-12-03T03:15:38.013Z,96919.69
2022-12-03T03:18:06.098Z,96919.94
2022-12-03T03:20:32.906Z,96925.78
2022-12-03T03:23:19.995Z,96916.25
2022-12-03T03:26:10.429Z,96917.94
2022-12-03T03:28:41.697Z,96911.09
2022-12-03T03:31:11.196Z,96917.22
2022-12-03T03:33:41.597Z,96914.75
2022-12-03T03:36:09.280Z,96920.16
2022-12-03T03:38:37.325Z,96908.28
2022-12-03T03:41:06.958Z,96913.66
2022-12-03T03:43:35.931Z,96902.16
2022-12-03T03:46:06.392Z,96895.59
2022-12-03T03:48:34.656Z,96905.03
2022-12-03T03:51:03.672Z,96904.56
2022-12-03T03:53:30.988Z,96906.16
2022-12-03T03:55:57.616Z,96904.31
2022-12-03T03:58:24.209Z,96879.13
2022-12-03T04:00:51.734Z,96902.97
2022-12-03T04:03:18.301Z,96872.97
2022-12-03T04:05:45.087Z,96908.50
2022-12-03T04:08:11.662Z,96860.97
2022-12-03T04:10:56.607Z,96901.56
2022-12-03T04:13:23.169Z,96892.66
2022-12-03T04:15:49.821Z,96897.09
2022-12-03T04:18:34.857Z,96892.41
2022-12-03T04:21:19.889Z,96872.72
2022-12-03T04:23:46.438Z,96889.16
2022-12-03T04:26:31.778Z,96877.06
2022-12-03T04:28:58.472Z,96873.91
2022-12-03T04:31:43.356Z,96893.47
2022-12-03T04:34:29.057Z,96875.28
2022-12-03T04:36:55.949Z,96892.88
2022-12-03T04:39:22.740Z,96883.06
2022-12-03T04:41:49.357Z,96862.06
2022-12-03T04:44:35.579Z,96881.59
2022-12-03T04:47:12.568Z,96891.81
2022-12-03T04:49:44.111Z,96896.63
2022-12-03T04:52:12.193Z,96895.41
2022-12-03T04:54:39.151Z,96875.91
2022-12-03T04:57:06.534Z,96877.91
2022-12-03T04:59:33.944Z,96885.25
2022-12-03T05:02:00.582Z,96859.78
2022-12-03T05:04:27.156Z,96883.91
2022-12-03T05:06:53.829Z,96885.47
2022-12-03T05:09:20.411Z,96891.19
2022-12-03T05:11:47.120Z,96903.91
2022-12-03T05:14:13.786Z,96896.75
2022-12-03T05:16:40.905Z,96876.16
2022-12-03T05:19:09.024Z,96901.28
2022-12-03T05:21:36.057Z,96875.34
2022-12-03T05:24:02.926Z,96867.03
2022-12-03T05:26:29.545Z,96890.97
2022-12-03T05:28:56.132Z,96897.66
2022-12-03T05:31:22.959Z,96895.53
2022-12-03T05:33:49.599Z,96891.34
2022-12-03T05:36:16.198Z,96899.44
2022-12-03T05:38:42.706Z,96905.50
2022-12-03T05:41:27.603Z,96874.84
2022-12-03T05:43:54.163Z,96869.31
2022-12-03T05:46:20.787Z,96903.72
2022-12-03T05:48:47.426Z,96882.00
2022-12-03T05:51:13.984Z,96882.47
2022-12-03T05:53:40.527Z,96899.34
2022-12-03T05:56:07.508Z,96908.38
2022-12-03T05:58:34.043Z,96900.94
2022-12-03T06:01:00.541Z,96893.47
2022-12-03T06:03:27.382Z,96901.88
2022-12-03T06:05:53.995Z,96902.63
2022-12-03T06:08:20.606Z,96883.38
2022-12-03T06:10:47.179Z,96901.47
2022-12-03T06:13:13.763Z,96903.72
2022-12-03T06:15:43.669Z,96902.28
2022-12-03T06:18:10.925Z,96887.06
2022-12-03T06:20:37.563Z,96913.84
2022-12-03T06:23:04.105Z,96906.13
2022-12-03T06:25:30.712Z,96875.88
2022-12-03T06:27:57.373Z,96908.31
2022-12-03T06:30:23.908Z,96904.53
2022-12-03T06:32:50.441Z,96901.75
2022-12-03T06:35:17.129Z,96897.84
2022-12-03T06:37:43.688Z,96903.16
2022-12-03T06:40:10.768Z,96902.09
2022-12-03T06:42:37.295Z,96913.88
2022-12-03T06:45:05.194Z,96880.28
2022-12-03T06:47:31.731Z,96908.06
2022-12-03T06:49:58.229Z,96908.25
2022-12-03T06:52:24.964Z,96911.34
2022-12-03T06:54:51.648Z,96900.09
2022-12-03T06:57:18.496Z,96903.72
2022-12-03T06:59:45.063Z,96872.16
2022-12-03T07:02:12.740Z,96870.75
2022-12-03T07:04:43.400Z,96891.38
2022-12-03T07:07:12.767Z,96903.38
2022-12-03T07:09:39.532Z,96907.75
2022-12-03T07:12:06.167Z,96880.66
2022-12-03T07:14:32.760Z,96904.53
2022-12-03T07:16:59.351Z,96874.00
2022-12-03T07:19:32.073Z,96900.78
2022-12-03T07:21:59.288Z,96879.66
2022-12-03T07:24:25.829Z,96914.06
2022-12-03T07:26:52.372Z,96897.25
2022-12-03T07:29:19.035Z,96906.53
2022-12-03T07:31:45.704Z,96902.63
2022-12-03T07:34:12.386Z,96880.50
2022-12-03T07:36:38.968Z,96894.81
2022-12-03T07:39:05.647Z,96872.38
2022-12-03T07:41:32.303Z,96878.56
2022-12-03T07:43:58.893Z,96885.97
2022-12-03T07:46:25.520Z,96902.91
2022-12-03T07:48:52.089Z,96903.53
2022-12-03T07:51:18.681Z,96902.97
2022-12-03T07:53:45.225Z,96903.59
2022-12-03T07:56:11.751Z,96894.66
2022-12-03T07:58:38.615Z,96878.56
2022-12-03T08:01:05.382Z,96905.34
2022-12-03T08:03:31.995Z,96902.56
2022-12-03T08:05:58.501Z,96896.63
2022-12-03T08:08:25.003Z,96899.19
2022-12-03T08:10:51.446Z,96902.91
2022-12-03T08:13:18.936Z,96899.78
2022-12-03T08:15:45.740Z,96895.81
2022-12-03T08:18:16.077Z,96888.22
2022-12-03T08:20:44.855Z,96858.47
2022-12-03T08:23:34.452Z,96892.22
2022-12-03T08:26:02.103Z,96897.41
2022-12-03T08:28:28.663Z,96878.97
2022-12-03T08:31:12.323Z,96890.03
2022-12-03T08:33:40.237Z,96859.03
2022-12-03T08:36:14.385Z,96871.19
2022-12-03T08:38:41.107Z,96859.84
2022-12-03T08:41:14.367Z,96878.22
2022-12-03T08:43:42.682Z,96875.69
2022-12-03T08:46:18.724Z,96885.16
2022-12-03T08:48:49.000Z,96870.16
2022-12-03T08:51:25.481Z,96888.91
2022-12-03T08:54:01.548Z,96882.03
2022-12-03T08:56:30.087Z,96885.50
2022-12-03T08:59:01.342Z,96897.03
2022-12-03T09:01:34.211Z,96896.84
2022-12-03T09:04:26.339Z,96899.38
2022-12-03T09:06:53.992Z,96909.19
2022-12-03T09:09:20.817Z,96899.09
2022-12-03T09:11:47.713Z,96898.19
2022-12-03T09:14:18.554Z,96895.34
2022-12-03T09:16:45.680Z,96900.66
2022-12-03T09:19:12.307Z,96901.81
2022-12-03T09:21:38.833Z,96909.63
2022-12-03T09:24:05.608Z,96895.06
2022-12-03T09:26:32.138Z,96872.88
2022-12-03T09:28:58.699Z,96872.78
2022-12-03T09:31:25.223Z,96855.72
2022-12-03T09:33:51.780Z,96916.44
2022-12-03T09:36:18.279Z,96899.25
2022-12-03T09:38:47.841Z,96873.00
2022-12-03T09:41:15.001Z,96893.59
2022-12-03T09:46:29.581Z,96886.41
2022-12-03T09:48:56.699Z,96883.47
2022-12-03T09:51:29.733Z,96888.41
2022-12-03T09:53:59.185Z,96869.81
2022-12-03T09:56:25.743Z,96890.78
2022-12-03T09:58:52.627Z,96867.41
2022-12-03T10:01:21.140Z,96880.22
2022-12-03T10:03:51.686Z,96856.28
2022-12-03T10:06:23.248Z,96881.72
2022-12-03T10:08:53.542Z,96885.91
2022-12-03T10:11:22.657Z,96874.78
2022-12-03T10:13:52.554Z,96872.47
2022-12-03T10:16:21.032Z,96877.56
2022-12-03T10:18:59.773Z,96863.13
2022-12-03T10:21:31.311Z,96865.97
2022-12-03T10:24:22.513Z,96866.75
2022-12-03T10:26:50.931Z,96863.41
2022-12-03T10:29:34.254Z,96863.94
2022-12-03T10:32:07.579Z,96856.88
2022-12-03T10:34:39.238Z,96857.00
2022-12-03T10:37:22.474Z,96855.47
2022-12-03T10:40:09.087Z,96858.78
2022-12-03T10:42:38.129Z,96853.00
2022-12-03T10:45:14.521Z,96851.44
2022-12-03T10:47:42.039Z,96842.00
2022-12-03T10:50:19.537Z,96854.72
2022-12-03T10:52:46.664Z,96859.06
2022-12-03T10:55:14.651Z,96847.28
2022-12-03T10:57:45.287Z,96841.72
2022-12-03T11:00:19.731Z,96848.00
2022-12-03T11:02:54.642Z,96838.81
2022-12-03T11:05:27.262Z,96838.97
2022-12-03T11:07:54.132Z,96846.56
2022-12-03T11:10:21.317Z,96839.16
2022-12-03T11:13:25.560Z,96838.19
2022-12-03T11:33:40.320Z,96812.53
2022-12-03T11:36:06.824Z,96816.06
2022-12-03T11:38:52.343Z,96792.63
2022-12-03T11:41:25.769Z,96794.91
2022-12-03T11:43:52.268Z,96798.56
2022-12-03T11:46:28.751Z,96800.78
2022-12-03T11:48:59.076Z,96791.81
2022-12-03T11:51:27.516Z,96770.56
2022-12-03T11:53:57.428Z,96791.34
2022-12-03T11:56:26.326Z,96786.69
2022-12-03T11:59:02.202Z,96778.66
2022-12-03T12:01:38.237Z,96767.88
2022-12-03T12:04:07.603Z,96768.88
2022-12-03T12:06:42.565Z,96761.94
2022-12-03T12:09:09.671Z,96761.91
2022-12-03T12:11:41.779Z,96760.56
2022-12-03T12:14:10.285Z,96744.56
2022-12-03T12:16:43.092Z,96762.50
2022-12-03T12:19:43.093Z,96764.50
2022-12-03T12:22:28.370Z,96756.91
2022-12-03T12:25:00.268Z,96738.88
2022-12-03T12:27:37.767Z,96767.44
2022-12-03T12:30:12.818Z,96770.63
2022-12-03T12:33:16.650Z,96761.72
2022-12-03T12:35:43.229Z,96757.41
2022-12-03T12:38:15.406Z,96761.19
2022-12-03T12:40:45.537Z,96752.53
2022-12-03T12:43:14.440Z,96755.59
2022-12-03T12:45:43.612Z,96750.06
2022-12-03T12:48:10.131Z,96746.94
2022-12-03T12:50:38.005Z,96759.44
2022-12-03T12:53:16.632Z,96761.22
2022-12-03T12:55:43.186Z,96736.75
2022-12-03T12:58:18.434Z,96730.94
2022-12-03T13:00:50.528Z,96750.59
2022-12-03T13:03:20.071Z,96744.63
2022-12-03T13:05:48.750Z,96734.78
2022-12-03T13:08:29.702Z,96742.09
2022-12-03T13:11:02.785Z,96719.47
2022-12-03T13:13:43.604Z,96732.28
2022-12-03T13:16:26.394Z,96733.47
2022-12-03T13:19:00.801Z,96737.03
2022-12-03T13:21:47.612Z,96730.88
2022-12-03T13:24:36.993Z,96727.84
2022-12-03T13:27:19.560Z,96728.06
2022-12-03T13:29:50.608Z,96719.09
2022-12-03T13:32:22.455Z,96731.84
2022-12-03T13:34:50.551Z,96723.31
2022-12-03T13:37:22.953Z,96703.75
2022-12-03T13:39:52.480Z,96683.78
2022-12-03T13:42:39.230Z,96722.31
2022-12-03T13:45:14.832Z,96726.16
2022-12-03T13:47:43.839Z,96718.38
2022-12-03T13:50:25.019Z,96719.84
2022-12-03T13:52:52.868Z,96715.09
2022-12-03T13:55:26.457Z,96703.16
2022-12-03T13:57:53.721Z,96713.56
2022-12-03T14:00:20.534Z,96711.88
2022-12-03T14:02:47.287Z,96707.53
2022-12-03T14:05:14.046Z,96703.97
2022-12-03T14:07:40.645Z,96710.19
2022-12-03T14:10:09.235Z,96686.81
2022-12-03T14:12:35.831Z,96707.72
2022-12-03T14:15:05.319Z,96678.81
2022-12-03T14:17:32.537Z,96712.41
2022-12-03T14:20:01.329Z,96697.88
2022-12-03T14:22:28.694Z,96698.94
2022-12-03T14:24:55.607Z,96699.69
2022-12-03T14:27:24.707Z,96706.91
2022-12-03T14:29:51.911Z,96673.47
2022-12-03T14:32:19.129Z,96708.41
2022-12-03T14:34:45.726Z,96640.47
2022-12-03T14:37:12.481Z,96703.41
2022-12-03T14:39:39.539Z,96699.84
2022-12-03T14:42:15.427Z,96708.59
2022-12-03T14:44:50.270Z,96713.34
2022-12-03T14:47:19.932Z,96713.50
2022-12-03T14:49:46.882Z,96680.06
2022-12-03T14:52:13.512Z,96704.94
2022-12-03T14:54:42.627Z,96713.63
2022-12-03T14:57:11.537Z,96704.47
2022-12-03T14:59:39.044Z,96681.66
2022-12-03T15:02:05.611Z,96704.84
2022-12-03T15:04:32.299Z,96705.03
2022-12-03T15:06:58.848Z,96697.88
2022-12-03T15:09:25.378Z,96697.16
2022-12-03T15:11:51.865Z,96688.34
2022-12-03T15:14:18.503Z,96664.81
2022-12-03T15:16:45.059Z,96693.69
2022-12-03T15:19:14.334Z,96703.06
2022-12-03T15:21:40.826Z,96699.59
2022-12-03T15:24:07.707Z,96693.34
2022-12-03T15:26:34.214Z,96702.50
2022-12-03T15:29:00.731Z,96669.91
2022-12-03T15:31:27.303Z,96689.34
2022-12-03T15:33:53.832Z,96698.56
2022-12-03T15:36:20.390Z,96672.34
2022-12-03T15:38:47.009Z,96696.09
2022-12-03T15:41:29.138Z,96696.63
2022-12-03T15:44:01.913Z,96693.63
2022-12-03T15:46:28.998Z,96697.72
2022-12-03T15:48:55.967Z,96691.28
2022-12-03T15:51:22.843Z,96695.84
2022-12-03T15:53:49.413Z,96685.59
2022-12-03T15:56:16.213Z,96695.66
2022-12-03T15:58:42.831Z,96694.97
2022-12-03T16:01:09.628Z,96693.44
2022-12-03T16:03:36.847Z,96696.63
2022-12-03T16:06:03.720Z,96702.53
2022-12-03T16:08:30.445Z,96680.78
2022-12-03T16:10:57.159Z,96708.69
2022-12-03T16:13:23.664Z,96705.91
2022-12-03T16:15:50.281Z,96672.69
2022-12-03T16:18:17.620Z,96675.44
2022-12-03T16:20:44.143Z,96669.72
2022-12-03T16:23:10.665Z,96691.13
2022-12-03T16:25:37.195Z,96693.34
2022-12-03T16:28:03.815Z,96673.38
2022-12-03T16:30:30.416Z,96685.16
2022-12-03T16:32:57.023Z,96691.28
2022-12-03T16:35:23.593Z,96696.38
2022-12-03T16:37:50.071Z,96684.16
2022-12-03T16:40:16.608Z,96679.81
2022-12-03T16:42:43.138Z,96682.19
2022-12-03T16:45:10.007Z,96678.28
2022-12-03T16:47:36.649Z,96632.94
2022-12-03T16:50:09.789Z,96668.47
2022-12-03T16:52:38.199Z,96673.72
2022-12-03T16:55:05.130Z,96674.19
2022-12-03T16:57:33.865Z,96660.72
2022-12-03T17:00:00.937Z,96680.25
2022-12-03T17:02:27.871Z,96661.72
2022-12-03T17:04:54.987Z,96685.13
2022-12-03T17:07:21.551Z,96680.41
2022-12-03T17:09:48.641Z,96696.72
2022-12-03T17:12:15.198Z,96695.13
2022-12-03T17:14:41.708Z,96650.84
2022-12-03T17:17:08.247Z,96681.72
2022-12-03T17:19:34.947Z,96678.09
2022-12-03T17:22:01.626Z,96673.44
2022-12-03T17:24:28.157Z,96689.69
2022-12-03T17:26:54.660Z,96684.94
2022-12-03T17:29:21.145Z,96697.91
2022-12-03T17:31:47.756Z,96668.00
2022-12-03T17:34:14.333Z,96674.53
2022-12-03T17:36:40.860Z,96650.13
2022-12-03T17:39:07.405Z,96679.16
2022-12-03T17:41:33.912Z,96655.19
2022-12-03T17:44:02.704Z,96669.72
2022-12-03T17:46:32.550Z,96687.81
2022-12-03T17:48:59.116Z,96687.09
2022-12-03T17:51:25.613Z,96685.56
2022-12-03T17:53:52.211Z,96685.94
2022-12-03T17:56:18.821Z,96682.38
2022-12-03T17:58:45.324Z,96682.91
2022-12-03T18:01:11.893Z,96675.06
2022-12-03T18:03:38.530Z,96671.41
2022-12-03T18:06:05.425Z,96665.53
2022-12-03T18:08:31.905Z,96645.66
2022-12-03T18:10:58.440Z,96664.53
2022-12-03T18:13:25.071Z,96667.47
2022-12-03T18:15:51.691Z,96674.97
2022-12-03T18:18:18.232Z,96669.72
2022-12-03T18:20:44.790Z,96665.69
2022-12-03T18:23:12.086Z,96629.34
2022-12-03T18:25:38.672Z,96640.78
2022-12-03T18:28:05.223Z,96641.28
2022-12-03T18:30:31.723Z,96638.88
2022-12-03T18:32:58.250Z,96642.16
2022-12-03T18:35:24.798Z,96617.13
2022-12-03T18:37:51.617Z,96606.91
2022-12-03T18:40:22.294Z,96644.84
2022-12-03T18:42:48.842Z,96617.50
2022-12-03T18:45:15.925Z,96629.69
2022-12-03T18:47:42.892Z,96628.16
2022-12-03T18:50:11.343Z,96603.69
2022-12-03T18:52:38.362Z,96630.75
2022-12-03T18:55:05.842Z,96600.75
2022-12-03T18:57:32.349Z,96611.00
2022-12-03T18:59:58.894Z,96614.84
2022-12-03T19:03:01.312Z,96628.63
2022-12-03T19:05:12.843Z,96617.63
2022-12-03T19:07:39.325Z,96599.34
2022-12-03T19:10:06.554Z,96588.00
2022-12-03T19:12:33.720Z,96615.50
2022-12-03T19:15:00.228Z,96618.28
2022-12-03T19:17:27.387Z,96612.28
2022-12-03T19:19:54.992Z,96637.72
2022-12-03T19:22:21.935Z,96638.97
2022-12-03T19:24:48.432Z,96559.88
2022-12-03T19:27:14.911Z,96555.25
2022-12-03T19:29:41.883Z,96622.66
2022-12-03T19:32:08.893Z,96598.53
2022-12-03T19:34:35.866Z,96614.78
2022-12-03T19:37:02.389Z,96600.78
2022-12-03T19:39:28.824Z,96615.47
2022-12-03T19:41:55.292Z,96591.63
2022-12-03T19:44:21.843Z,96540.78
2022-12-03T19:46:49.758Z,96618.72
2022-12-03T19:49:18.389Z,96616.03
2022-12-03T19:51:44.856Z,96579.16
2022-12-03T19:54:12.003Z,96588.69
2022-12-03T19:56:38.619Z,96607.97
2022-12-03T19:59:05.346Z,96567.66
2022-12-03T20:01:34.377Z,96595.03
2022-12-03T20:04:02.657Z,96606.78
2022-12-03T20:06:32.151Z,96564.97
2022-12-03T20:09:06.761Z,96595.75
2022-12-03T20:11:34.711Z,96587.00
2022-12-03T20:14:04.597Z,96590.66
2022-12-03T20:16:31.706Z,96582.81
2022-12-03T20:19:00.960Z,96609.94
2022-12-03T20:21:31.402Z,96619.88
2022-12-03T20:23:58.138Z,96590.69
2022-12-03T20:26:25.324Z,96610.97
2022-12-03T20:28:54.155Z,96601.97
2022-12-03T20:31:23.136Z,96607.00
2022-12-03T20:33:52.058Z,96590.22
2022-12-03T20:36:23.250Z,96611.75
2022-12-03T20:38:55.115Z,96605.69
2022-12-03T20:41:21.767Z,96607.16
2022-12-03T20:43:49.038Z,96614.88
2022-12-03T20:46:18.140Z,96602.84
2022-12-03T20:48:45.541Z,96605.06
2022-12-03T20:51:15.918Z,96595.50
2022-12-03T20:53:43.315Z,96599.94
2022-12-03T20:56:10.691Z,96572.63
2022-12-03T20:58:37.315Z,96578.91
2022-12-03T21:01:16.019Z,96594.06
2022-12-03T21:03:43.907Z,96551.66
2022-12-03T21:06:11.322Z,96550.38
2022-12-03T21:08:41.964Z,96584.38
2022-12-03T21:11:14.901Z,96581.41
2022-12-03T21:13:42.488Z,96584.38
2022-12-03T21:16:11.923Z,96580.78
2022-12-03T21:18:39.071Z,96579.19
2022-12-03T21:21:06.605Z,96580.81
2022-12-03T21:23:33.906Z,96576.09
2022-12-03T21:26:09.622Z,96573.06
2022-12-03T21:28:38.371Z,96558.88
2022-12-03T21:31:07.657Z,96546.53
2022-12-03T21:33:34.692Z,96564.81
2022-12-03T21:36:02.179Z,96554.53
2022-12-03T21:38:30.007Z,96561.22
2022-12-03T21:40:57.547Z,96547.84
2022-12-03T21:43:24.630Z,96532.06
2022-12-03T21:45:51.723Z,96517.34
2022-12-03T21:48:18.945Z,96557.53
2022-12-03T21:50:46.259Z,96544.88
2022-12-03T21:53:12.915Z,96537.09
2022-12-03T21:55:40.796Z,96551.16
2022-12-03T21:58:08.536Z,96506.28
2022-12-03T22:00:35.548Z,96540.72
2022-12-03T22:03:02.163Z,96531.66
2022-12-03T22:05:28.794Z,96523.81
2022-12-03T22:07:55.295Z,96530.19
2022-12-03T22:10:21.880Z,96517.56
2022-12-03T22:12:48.345Z,96516.56
2022-12-03T22:15:18.682Z,96506.75
2022-12-03T22:17:45.734Z,96512.34
2022-12-03T22:20:12.356Z,96539.16
2022-12-03T22:22:38.896Z,96517.22
2022-12-03T22:25:05.479Z,96519.50
2022-12-03T22:27:31.925Z,96523.34
2022-12-03T22:29:58.370Z,96528.16
2022-12-03T22:32:24.908Z,96483.41
2022-12-03T22:34:51.531Z,96512.81
2022-12-03T22:37:17.988Z,96452.34
2022-12-03T22:39:44.501Z,96494.94
2022-12-03T22:42:11.027Z,96511.59
2022-12-03T22:44:37.555Z,96495.06
2022-12-03T22:47:04.309Z,96485.22
2022-12-03T22:49:30.800Z,96506.91
2022-12-03T22:51:57.222Z,96530.94
2022-12-03T22:54:24.530Z,96505.94
2022-12-03T22:56:51.058Z,96513.47
2022-12-03T22:59:17.520Z,96511.44
2022-12-03T23:18:23.618Z,96542.19
2022-12-03T23:20:52.771Z,96524.63
2022-12-03T23:23:20.408Z,96531.38
2022-12-03T23:26:16.640Z,96523.78
2022-12-03T23:28:45.412Z,96517.09
2022-12-03T23:31:21.930Z,96499.84
2022-12-03T23:33:48.975Z,96521.25
2022-12-03T23:36:16.236Z,96501.50
2022-12-03T23:38:42.900Z,96511.09
2022-12-03T23:41:15.790Z,96512.97
2022-12-03T23:43:42.880Z,96508.53
2022-12-03T23:46:11.971Z,96501.44
2022-12-03T23:48:38.561Z,96500.09
2022-12-03T23:51:10.984Z,96486.47
2022-12-03T23:53:38.429Z,96488.97
2022-12-03T23:56:06.423Z,96488.38
2022-12-03T23:58:33.818Z,96476.13
